Time;durP1;ratioP1;P1;durP2;ratioP2;P2;SDS_P1;SDS_P2;PMS_P1;PMS_P2;Temp;Humidity;BMP_temperature;BMP_pressure;BME280_temperature;BME280_humidity;BME280_pressure;Samples;Min_cycle;Max_cycle;Signal;HPM_P1;HPM_P2
2023/04/29 00:01:16;;;;;;;0.10;0.10;;;;;;;5.20;83.61;99487.63;5108822;27;20394;-75
2023/04/29 00:03:43;;;;;;;0.10;0.10;;;;;;;5.17;83.84;99474.56;5108254;27;20493;-74
2023/04/29 00:06:10;;;;;;;0.10;0.10;;;;;;;5.11;84.05;99476.38;5109458;27;20043;-75
2023/04/29 00:08:37;;;;;;;0.10;0.10;;;;;;;5.11;84.39;99475.53;5105892;27;20104;-75
2023/04/29 00:11:05;;;;;;;0.10;0.10;;;;;;;5.14;84.42;99480.47;5125240;27;20130;-76
2023/04/29 00:13:31;;;;;;;0.10;0.10;;;;;;;5.15;84.74;99484.00;5123597;27;20135;-76
2023/04/29 00:15:57;;;;;;;0.10;0.10;;;;;;;5.15;84.69;99486.72;5119337;27;20047;-76
2023/04/29 00:18:23;;;;;;;0.10;0.10;;;;;;;5.07;85.41;99483.38;5125591;27;20055;-76
2023/04/29 00:20:50;;;;;;;0.10;0.10;;;;;;;5.05;86.03;99480.06;5093131;27;20039;-76
2023/04/29 00:23:17;;;;;;;0.10;0.10;;;;;;;5.08;86.66;99473.34;5090104;27;20096;-75
2023/04/29 00:25:43;;;;;;;0.10;0.10;;;;;;;5.07;86.59;99464.41;5108385;27;20111;-76
2023/04/29 00:28:11;;;;;;;0.10;0.10;;;;;;;4.97;86.40;99466.94;5106602;27;20043;-75
2023/04/29 00:30:37;;;;;;;0.10;0.10;;;;;;;4.92;87.00;99469.56;5124807;27;20089;-75
2023/04/29 00:33:04;;;;;;;0.10;0.10;;;;;;;4.72;87.77;99435.63;5087759;27;20051;-76
2023/04/29 00:35:30;;;;;;;0.10;0.10;;;;;;;4.78;88.11;99466.34;5087032;28;20050;-76
2023/04/29 00:37:57;;;;;;;0.10;0.10;;;;;;;4.73;88.13;99469.78;5122160;27;20078;-75
2023/04/29 00:40:23;;;;;;;0.10;0.10;;;;;;;4.70;88.58;99448.59;5124720;27;20047;-75
2023/04/29 00:42:49;;;;;;;0.10;0.10;;;;;;;4.65;87.74;99449.31;5121367;27;20039;-75
2023/04/29 00:45:17;;;;;;;0.10;0.10;;;;;;;4.63;87.16;99454.16;5116063;27;20043;-75
2023/04/29 00:47:43;;;;;;;;;;;;;;;4.65;87.07;99454.75;5106249;28;20053;-75
2023/04/29 00:50:10;;;;;;;0.10;0.10;;;;;;;4.64;86.60;99450.38;5107974;28;19955;-74
2023/04/29 00:52:38;;;;;;;0.10;0.10;;;;;;;4.46;86.33;99413.53;5109289;28;20046;-74
2023/04/29 00:55:06;;;;;;;0.10;0.10;;;;;;;4.59;86.41;99433.22;5108285;28;20059;-74
2023/04/29 00:57:33;;;;;;;0.10;0.10;;;;;;;4.58;86.53;99429.72;5106661;28;20142;-75
2023/04/29 01:00:00;;;;;;;0.10;0.10;;;;;;;4.63;86.65;99446.03;5125571;28;20134;-74
2023/04/29 01:02:28;;;;;;;0.10;0.10;;;;;;;4.64;86.47;99436.84;5105412;28;20043;-75
2023/04/29 01:04:55;;;;;;;0.10;0.10;;;;;;;4.63;86.35;99437.91;5106292;28;20066;-74
2023/04/29 01:07:29;;;;;;;0.10;0.10;;;;;;;4.67;86.21;99443.66;5122836;28;20310;-75
2023/04/29 01:10:07;;;;;;;0.10;0.10;;;;;;;4.70;86.17;99451.31;5104855;28;20537;-75
2023/04/29 01:12:36;;;;;;;;;;;;;;;4.73;86.00;99453.50;5125138;28;20051;-75
2023/04/29 01:15:06;;;;;;;0.20;0.10;;;;;;;4.69;85.77;99455.09;5087686;28;20404;-75
2023/04/29 01:17:40;;;;;;;0.10;0.10;;;;;;;4.64;85.59;99463.13;5086550;28;20044;-76
2023/04/29 01:20:09;;;;;;;0.10;0.10;;;;;;;4.60;85.50;99457.38;5121444;28;20092;-75
2023/04/29 01:22:36;;;;;;;0.10;0.10;;;;;;;4.59;84.52;99460.31;5098004;28;20043;-76
2023/04/29 01:25:05;;;;;;;;;;;;;;;4.58;84.62;99473.03;5105614;28;20390;-76
2023/04/29 01:27:41;;;;;;;0.10;0.10;;;;;;;4.58;84.73;99466.78;5103604;28;20404;-76
2023/04/29 01:30:21;;;;;;;0.10;0.10;;;;;;;4.59;85.02;99465.72;5122446;28;20043;-75
2023/04/29 01:32:55;;;;;;;0.10;0.10;;;;;;;4.57;84.79;99457.03;5088562;28;20137;-75
2023/04/29 01:35:39;;;;;;;0.10;0.10;;;;;;;4.63;84.95;99459.59;5089690;28;20055;-74
2023/04/29 01:38:28;;;;;;;0.10;0.10;;;;;;;4.66;85.15;99456.38;5106734;28;20421;-75
2023/04/29 01:41:16;;;;;;;0.10;0.10;;;;;;;4.63;84.83;99461.47;5126085;28;20657;-77
2023/04/29 01:43:51;;;;;;;0.10;0.10;;;;;;;4.60;84.77;99459.25;5088557;28;20096;-77
2023/04/29 01:46:23;;;;;;;0.10;0.10;;;;;;;4.58;84.76;99456.78;5104545;28;20047;-77
2023/04/29 01:48:53;;;;;;;0.10;0.10;;;;;;;4.53;84.37;99445.88;5123227;28;20100;-77
2023/04/29 01:51:20;;;;;;;0.10;0.10;;;;;;;4.50;84.38;99452.59;5104047;28;20550;-77
2023/04/29 01:53:46;;;;;;;0.10;0.10;;;;;;;4.50;84.01;99451.75;5122586;28;20421;-77
2023/04/29 01:59:35;;;;;;;0.10;0.10;;;;;;;4.38;83.49;99466.19;5085920;27;20057;-78
2023/04/29 02:02:14;;;;;;;0.10;0.10;;;;;;;4.33;83.44;99457.16;5107565;27;20146;-78
2023/04/29 02:04:50;;;;;;;0.10;0.10;;;;;;;4.25;83.22;99464.56;5108342;27;20043;-78
2023/04/29 02:07:31;;;;;;;0.10;0.10;;;;;;;4.29;83.67;99475.75;5109388;27;20456;-78
2023/04/29 02:09:57;;;;;;;0.10;0.10;;;;;;;4.31;84.41;99481.75;5092657;27;20050;-78
2023/04/29 02:12:25;;;;;;;0.10;0.10;;;;;;;4.31;84.95;99476.31;5091576;27;20099;-77
2023/04/29 02:14:51;;;;;;;0.10;0.10;;;;;;;4.28;85.30;99467.84;5107536;27;20043;-77
2023/04/29 02:17:18;;;;;;;0.10;0.10;;;;;;;4.25;85.54;99461.06;5092075;27;20043;-78
2023/04/29 02:19:58;;;;;;;0.10;0.10;;;;;;;4.19;85.55;99448.47;5105294;28;20040;-78
2023/04/29 02:22:24;;;;;;;0.10;0.10;;;;;;;4.23;85.77;99457.78;5106936;27;20148;-78
2023/04/29 02:24:53;;;;;;;0.10;0.10;;;;;;;4.21;85.82;99457.16;5090054;27;20039;-78
2023/04/29 02:27:19;;;;;;;0.10;0.10;;;;;;;4.14;85.94;99465.47;5124450;27;20300;-77
2023/04/29 02:29:47;;;;;;;0.10;0.10;;;;;;;4.14;86.43;99468.16;5107042;27;20075;-77
2023/04/29 02:32:14;;;;;;;0.10;0.10;;;;;;;4.15;86.76;99477.94;5125080;27;20059;-77
2023/04/29 02:34:40;;;;;;;0.10;0.10;;;;;;;4.11;86.85;99464.03;5124891;27;20047;-78
2023/04/29 02:37:07;;;;;;;0.10;0.10;;;;;;;4.03;86.48;99464.41;5090893;27;20043;-77
2023/04/29 02:39:33;;;;;;;0.10;0.10;;;;;;;4.00;86.44;99483.84;5092139;27;20043;-78
2023/04/29 02:41:59;;;;;;;0.10;0.10;;;;;;;3.91;86.44;99477.97;5108438;27;20622;-79
2023/04/29 02:44:25;;;;;;;0.10;0.10;;;;;;;3.92;86.46;99503.16;5129361;27;20043;-77
2023/04/29 02:46:53;;;;;;;0.10;0.10;;;;;;;3.90;86.74;99506.09;5114257;27;20054;-78
2023/04/29 02:49:20;;;;;;;;;;;;;;;3.87;86.96;99517.38;5129585;27;20077;-77
2023/04/29 02:51:48;;;;;;;0.10;0.10;;;;;;;3.74;87.31;99496.81;5127421;27;19987;-77
2023/04/29 02:54:15;;;;;;;0.10;0.10;;;;;;;3.81;87.72;99527.28;5112442;27;20563;-77
2023/04/29 02:56:42;;;;;;;0.10;0.10;;;;;;;3.78;88.19;99525.03;5107498;27;20532;-78
2023/04/29 02:59:34;;;;;;;0.10;0.10;;;;;;;3.81;88.38;99535.38;5126011;27;20074;-77
2023/04/29 03:02:03;;;;;;;0.10;0.10;;;;;;;3.82;88.32;99538.91;5089081;27;20039;-77
2023/04/29 03:04:29;;;;;;;;;;;;;;;3.79;88.46;99542.91;5116224;27;20058;-77
2023/04/29 03:06:56;;;;;;;0.00;0.00;;;;;;;3.77;88.97;99550.44;5073204;27;19923;-77
2023/04/29 03:09:25;;;;;;;0.10;0.10;;;;;;;3.74;89.46;99558.19;5107888;27;20050;-77
2023/04/29 03:11:52;;;;;;;0.10;0.10;;;;;;;3.71;89.95;99554.06;5108134;27;20055;-74
2023/04/29 03:14:19;;;;;;;0.10;0.10;;;;;;;3.64;90.31;99547.97;5108585;27;20047;-74
2023/04/29 03:16:46;;;;;;;0.10;0.10;;;;;;;3.70;90.88;99565.94;5088483;27;20425;-73
2023/04/29 03:19:14;;;;;;;0.10;0.10;;;;;;;3.71;91.02;99564.09;5107888;27;20047;-73
2023/04/29 03:21:40;;;;;;;0.10;0.10;;;;;;;3.63;90.74;99566.06;5091630;27;20126;-73
2023/04/29 03:24:07;;;;;;;0.10;0.10;;;;;;;3.60;90.87;99573.84;5105529;27;20047;-73
2023/04/29 03:26:34;;;;;;;0.10;0.10;;;;;;;3.57;90.83;99569.72;5108315;27;20112;-72
2023/04/29 03:29:04;;;;;;;0.10;0.10;;;;;;;3.53;90.98;99571.25;5089923;27;20047;-73
2023/04/29 03:31:30;;;;;;;0.10;0.10;;;;;;;3.52;90.85;99581.22;5107073;27;20043;-73
2023/04/29 03:33:56;;;;;;;0.10;0.10;;;;;;;3.54;90.79;99578.31;5108066;27;20130;-72
2023/04/29 03:36:24;;;;;;;0.10;0.10;;;;;;;3.50;90.30;99572.53;5088232;27;20062;-73
2023/04/29 03:38:58;;;;;;;0.10;0.10;;;;;;;3.49;89.98;99578.16;5084942;28;20051;-73
2023/04/29 03:41:25;;;;;;;0.05;0.05;;;;;;;3.48;89.90;99588.16;5086393;28;20464;-73
2023/04/29 03:43:53;;;;;;;0.10;0.10;;;;;;;3.49;89.54;99591.69;5101568;28;20589;-73
2023/04/29 03:46:19;;;;;;;;;;;;;;;3.48;89.57;99596.28;5072127;27;20502;-73
2023/04/29 03:48:45;;;;;;;0.10;0.10;;;;;;;3.53;90.20;99598.28;5105594;27;19985;-72
2023/04/29 03:51:12;;;;;;;0.10;0.10;;;;;;;3.48;89.87;99593.56;5091242;27;20076;-73
2023/04/29 03:53:40;;;;;;;0.10;0.10;;;;;;;3.45;89.82;99609.44;5124179;27;20332;-72
2023/04/29 03:56:07;;;;;;;0.10;0.10;;;;;;;3.44;89.79;99615.88;5121988;27;20455;-72
2023/04/29 03:58:33;;;;;;;0.10;0.10;;;;;;;3.40;89.70;99610.94;5088974;28;20071;-73
2023/04/29 04:01:00;;;;;;;0.10;0.10;;;;;;;3.31;89.61;99616.94;5087386;28;20502;-72
2023/04/29 04:03:34;;;;;;;0.10;0.10;;;;;;;3.34;89.89;99617.25;5081644;28;20043;-73
2023/04/29 04:06:00;;;;;;;0.03;0.03;;;;;;;3.34;89.45;99613.75;5103659;27;20130;-73
2023/04/29 04:08:27;;;;;;;0.10;0.10;;;;;;;3.30;89.10;99610.69;5123270;27;20039;-72
2023/04/29 04:11:24;;;;;;;0.10;0.10;;;;;;;3.33;89.05;99606.69;5082390;27;20155;-73
2023/04/29 04:13:56;;;;;;;0.10;0.10;;;;;;;3.37;88.95;99610.59;5106194;27;20049;-72
2023/04/29 04:16:23;;;;;;;0.10;0.10;;;;;;;3.31;88.88;99595.31;5105906;27;20067;-72
2023/04/29 04:18:51;;;;;;;0.10;0.10;;;;;;;3.49;88.93;99611.44;5106369;27;20049;-72
2023/04/29 04:21:17;;;;;;;0.10;0.10;;;;;;;3.60;88.66;99625.22;5107705;27;20039;-73
2023/04/29 04:23:50;;;;;;;0.10;0.10;;;;;;;3.66;88.30;99619.66;5088453;27;20137;-73
2023/04/29 04:26:20;;;;;;;0.10;0.10;;;;;;;3.71;88.31;99615.47;5089469;27;20062;-72
2023/04/29 04:29:06;;;;;;;0.10;0.10;;;;;;;3.74;88.09;99615.81;5107417;27;20454;-72
2023/04/29 04:31:39;;;;;;;0.10;0.10;;;;;;;3.72;87.66;99614.41;5105497;27;20047;-72
2023/04/29 04:34:06;;;;;;;0.10;0.10;;;;;;;3.76;87.54;99615.56;5088839;27;20046;-72
2023/04/29 04:36:33;;;;;;;0.10;0.10;;;;;;;3.77;86.88;99611.81;5105055;28;20569;-72
2023/04/29 04:38:59;;;;;;;0.10;0.10;;;;;;;3.83;86.64;99614.41;5093740;28;20039;-72
2023/04/29 04:41:26;;;;;;;0.10;0.10;;;;;;;3.87;86.13;99606.66;5089453;27;20074;-72
2023/04/29 04:43:53;;;;;;;0.10;0.10;;;;;;;3.90;85.35;99603.47;5089216;28;20087;-73
2023/04/29 04:46:34;;;;;;;0.10;0.10;;;;;;;3.98;84.76;99610.41;5110607;28;20051;-74
2023/04/29 04:49:16;;;;;;;0.10;0.10;;;;;;;4.10;84.67;99618.50;5107972;28;20071;-75
2023/04/29 04:51:51;;;;;;;0.10;0.10;;;;;;;4.17;84.15;99607.56;5104550;28;20262;-75
2023/04/29 04:54:17;;;;;;;0.10;0.10;;;;;;;4.22;83.70;99602.28;5112095;28;20417;-75
2023/04/29 04:56:44;;;;;;;0.10;0.10;;;;;;;4.27;82.98;99602.38;5100335;28;20047;-75
2023/04/29 04:59:10;;;;;;;0.10;0.10;;;;;;;4.24;82.80;99590.16;5114632;28;20101;-75
2023/04/29 05:01:40;;;;;;;0.10;0.10;;;;;;;4.40;82.26;99612.97;5114592;28;20035;-75
2023/04/29 05:04:06;;;;;;;;;;;;;;;4.48;81.86;99624.47;5109484;28;20078;-74
2023/04/29 05:06:32;;;;;;;0.10;0.10;;;;;;;4.52;81.72;99615.63;5095392;28;19923;-74
2023/04/29 05:08:59;;;;;;;0.20;0.20;;;;;;;4.57;80.91;99605.97;5113041;28;20052;-74
2023/04/29 05:11:25;;;;;;;0.10;0.10;;;;;;;4.55;80.61;99606.22;5115212;28;20095;-74
2023/04/29 05:14:04;;;;;;;0.10;0.10;;;;;;;4.54;80.30;99613.50;5124690;28;20043;-74
2023/04/29 05:16:31;;;;;;;0.10;0.10;;;;;;;4.55;80.02;99611.63;5125141;28;20414;-74
2023/04/29 05:18:59;;;;;;;0.20;0.20;;;;;;;4.59;79.88;99612.78;5087215;28;20067;-75
2023/04/29 05:21:30;;;;;;;0.13;0.13;;;;;;;4.63;79.69;99608.53;5106302;28;20043;-73
2023/04/29 05:23:57;;;;;;;0.10;0.10;;;;;;;4.63;78.89;99622.06;5107668;28;20039;-74
2023/04/29 05:26:24;;;;;;;0.17;0.17;;;;;;;4.65;78.42;99619.94;5111042;28;20054;-74
2023/04/29 05:28:52;;;;;;;0.10;0.10;;;;;;;4.62;77.91;99635.88;5104124;28;20039;-73
2023/04/29 05:31:20;;;;;;;0.10;0.10;;;;;;;4.58;78.28;99632.81;5090327;28;20747;-73
2023/04/29 05:33:46;;;;;;;0.10;0.10;;;;;;;4.57;78.27;99639.28;5114812;27;20039;-74
2023/04/29 05:36:14;;;;;;;0.10;0.10;;;;;;;4.51;77.84;99638.34;5097873;27;20128;-73
2023/04/29 05:38:41;;;;;;;0.10;0.10;;;;;;;4.47;78.22;99634.50;5125562;27;20039;-73
2023/04/29 05:41:08;;;;;;;0.10;0.10;;;;;;;4.51;78.67;99635.66;4744959;27;9999721;-73
2023/04/29 05:43:55;;;;;;;0.20;0.20;;;;;;;4.64;78.76;99628.34;5113422;27;20051;-73
2023/04/29 05:46:22;;;;;;;0.10;0.10;;;;;;;4.73;78.35;99626.88;5111238;27;20055;-73
2023/04/29 05:48:49;;;;;;;0.10;0.10;;;;;;;4.68;77.66;99646.56;5107890;27;20039;-73
2023/04/29 05:51:16;;;;;;;0.10;0.10;;;;;;;4.70;77.54;99642.81;5125027;27;20059;-73
2023/04/29 05:53:43;;;;;;;0.10;0.10;;;;;;;4.75;77.41;99651.84;5106507;27;20069;-73
2023/04/29 05:56:10;;;;;;;0.28;0.15;;;;;;;4.79;77.35;99646.75;5108455;27;20055;-73
2023/04/29 05:58:37;;;;;;;0.20;0.20;;;;;;;4.83;77.07;99666.88;5083192;27;20039;-73
2023/04/29 06:01:03;;;;;;;0.10;0.10;;;;;;;4.83;76.74;99665.00;5117989;27;20130;-73
2023/04/29 06:03:31;;;;;;;0.22;0.20;;;;;;;4.90;76.57;99655.91;5127075;27;20421;-73
2023/04/29 06:06:37;;;;;;;0.20;0.20;;;;;;;5.07;76.39;99664.13;5049870;28;20159;-74
2023/04/29 06:09:17;;;;;;;0.10;0.10;;;;;;;5.16;75.62;99667.25;5052124;28;20115;-74
2023/04/29 06:11:45;;;;;;;0.20;0.20;;;;;;;5.21;74.99;99679.03;5029212;28;20057;-74
2023/04/29 06:14:11;;;;;;;0.20;0.20;;;;;;;5.29;74.16;99672.41;5014099;28;20053;-74
2023/04/29 06:16:38;;;;;;;0.10;0.10;;;;;;;5.28;73.68;99659.06;5007526;28;20333;-74
2023/04/29 06:19:05;;;;;;;0.10;0.10;;;;;;;5.30;73.98;99682.16;5013719;28;20148;-73
2023/04/29 06:21:31;;;;;;;0.10;0.10;;;;;;;5.28;73.02;99686.19;5024725;28;20049;-73
2023/04/29 06:24:01;;;;;;;0.20;0.20;;;;;;;5.25;72.90;99682.88;5018466;28;20053;-74
2023/04/29 06:26:27;;;;;;;0.10;0.10;;;;;;;5.29;72.97;99693.25;5004795;28;20045;-74
2023/04/29 06:28:53;;;;;;;0.17;0.17;;;;;;;5.35;72.62;99693.09;5040174;28;20040;-75
2023/04/29 06:31:20;;;;;;;0.20;0.20;;;;;;;5.49;72.74;99700.94;5034658;28;20562;-76
2023/04/29 06:33:47;;;;;;;0.20;0.20;;;;;;;5.58;72.29;99707.63;5055250;28;20085;-75
2023/04/29 06:36:13;;;;;;;0.20;0.20;;;;;;;5.67;71.97;99699.91;5049388;27;20076;-76
2023/04/29 06:39:08;;;;;;;0.20;0.20;;;;;;;5.76;71.59;99703.84;5109616;27;20126;-74
2023/04/29 06:41:35;;;;;;;;;;;;;;;5.93;71.21;99711.19;5120929;27;20043;-75
2023/04/29 06:44:02;;;;;;;0.20;0.20;;;;;;;6.16;70.34;99714.84;5120471;27;20499;-75
2023/04/29 06:46:47;;;;;;;0.20;0.20;;;;;;;6.27;69.74;99708.50;5099730;27;20320;-74
2023/04/29 06:49:35;;;;;;;0.20;0.20;;;;;;;6.53;69.42;99717.00;5099836;27;20477;-75
2023/04/29 06:52:02;;;;;;;0.20;0.20;;;;;;;6.80;68.92;99725.28;5078608;27;20047;-75
2023/04/29 06:54:30;;;;;;;0.20;0.20;;;;;;;7.01;68.15;99719.28;5113121;27;20058;-72
2023/04/29 06:56:57;;;;;;;0.20;0.20;;;;;;;7.09;67.41;99711.50;5121584;27;20129;-72
2023/04/29 06:59:23;;;;;;;0.20;0.20;;;;;;;7.23;66.94;99727.41;5088372;27;20438;-72
2023/04/29 07:01:51;;;;;;;0.20;0.20;;;;;;;7.32;66.27;99727.78;5121433;27;20122;-72
2023/04/29 07:04:19;;;;;;;0.30;0.30;;;;;;;7.55;65.24;99723.16;5124203;27;20138;-72
2023/04/29 07:06:48;;;;;;;0.20;0.20;;;;;;;7.63;64.45;99714.50;5080683;27;20046;-75
2023/04/29 07:09:14;;;;;;;0.20;0.20;;;;;;;7.75;63.90;99723.34;5116491;27;20111;-75
2023/04/29 07:11:42;;;;;;;0.20;0.20;;;;;;;7.73;63.81;99741.84;5114186;27;20039;-75
2023/04/29 07:14:08;;;;;;;0.20;0.20;;;;;;;7.60;64.14;99720.47;5116929;27;20130;-75
2023/04/29 07:16:35;;;;;;;0.20;0.20;;;;;;;7.68;64.08;99743.69;5123271;27;20051;-75
2023/04/29 07:19:01;;;;;;;0.30;0.30;;;;;;;7.84;63.88;99741.94;5112645;27;20582;-76
2023/04/29 07:21:27;;;;;;;0.20;0.20;;;;;;;8.09;63.00;99744.88;5120534;27;20047;-76
2023/04/29 07:23:54;;;;;;;0.20;0.20;;;;;;;8.16;62.44;99743.84;5090560;27;20039;-75
2023/04/29 07:26:21;;;;;;;0.20;0.20;;;;;;;8.31;62.31;99754.88;5110274;27;20509;-75
2023/04/29 07:28:48;;;;;;;0.30;0.30;;;;;;;8.50;61.13;99751.75;5113761;27;20047;-76
2023/04/29 07:31:15;;;;;;;0.20;0.20;;;;;;;8.92;59.37;99750.91;5080187;27;20047;-76
2023/04/29 07:33:43;;;;;;;0.20;0.20;;;;;;;9.18;59.04;99756.47;5114635;27;20517;-75
2023/04/29 07:36:10;;;;;;;0.28;0.28;;;;;;;9.61;57.74;99763.72;5113604;27;20070;-76
2023/04/29 07:38:36;;;;;;;0.20;0.20;;;;;;;9.61;57.63;99763.72;5112081;27;20055;-76
2023/04/29 07:41:03;;;;;;;0.20;0.20;;;;;;;9.36;58.05;99759.81;5122060;27;20308;-76
2023/04/29 07:43:29;;;;;;;0.20;0.20;;;;;;;9.02;59.06;99757.50;5096764;27;20043;-76
2023/04/29 07:45:57;;;;;;;0.17;0.17;;;;;;;8.76;59.38;99762.81;5077963;27;20092;-75
2023/04/29 07:48:23;;;;;;;;;;;;;;;8.48;59.90;99768.31;5095937;27;20039;-75
2023/04/29 07:50:50;;;;;;;0.22;0.22;;;;;;;8.43;60.50;99778.34;5109797;27;19924;-75
2023/04/29 07:53:17;;;;;;;0.25;0.25;;;;;;;8.73;60.03;99785.13;5123570;27;20137;-76
2023/04/29 07:55:43;;;;;;;0.20;0.20;;;;;;;8.98;58.80;99779.03;5121938;27;20055;-76
2023/04/29 07:58:10;;;;;;;0.20;0.20;;;;;;;9.38;58.55;99778.66;5123720;27;20047;-76
2023/04/29 08:00:37;;;;;;;0.30;0.30;;;;;;;9.60;57.75;99790.22;5121117;27;20040;-76
2023/04/29 08:03:06;;;;;;;0.20;0.20;;;;;;;9.66;57.69;99780.09;5106388;27;20501;-76
2023/04/29 08:05:32;;;;;;;0.20;0.20;;;;;;;9.83;57.63;99796.25;5120647;27;20051;-76
2023/04/29 08:07:59;;;;;;;0.30;0.30;;;;;;;10.21;56.67;99796.03;5094455;27;20035;-76
2023/04/29 08:10:26;;;;;;;0.30;0.30;;;;;;;10.58;54.95;99796.88;5097055;27;20049;-76
2023/04/29 08:12:53;;;;;;;0.20;0.20;;;;;;;10.62;54.18;99800.69;5108642;27;20524;-76
2023/04/29 08:15:19;;;;;;;0.20;0.20;;;;;;;10.64;54.08;99793.88;5076621;27;20131;-76
2023/04/29 08:17:46;;;;;;;0.20;0.20;;;;;;;10.42;53.89;99785.97;5125844;27;20062;-76
2023/04/29 08:20:14;;;;;;;0.20;0.20;;;;;;;10.25;53.72;99788.91;5105266;27;20047;-75
2023/04/29 08:22:41;;;;;;;0.10;0.10;;;;;;;9.80;54.69;99796.81;5125420;27;20043;-75
2023/04/29 08:25:08;;;;;;;0.20;0.20;;;;;;;9.63;55.01;99805.22;5124417;27;20065;-73
2023/04/29 08:27:35;;;;;;;0.30;0.30;;;;;;;9.94;54.35;99813.47;5125107;27;20108;-73
2023/04/29 08:30:01;;;;;;;0.20;0.20;;;;;;;10.31;53.31;99809.72;5105672;28;20084;-73
2023/04/29 08:32:33;;;;;;;0.20;0.20;;;;;;;10.58;53.22;99805.88;5125324;27;20039;-72
2023/04/29 08:35:00;;;;;;;0.20;0.20;;;;;;;10.74;52.86;99809.44;5124293;27;20047;-72
2023/04/29 08:37:28;;;;;;;;;;;;;;;10.61;52.81;99807.25;5086975;27;20058;-72
2023/04/29 08:39:54;;;;;;;0.20;0.20;;;;;;;10.64;52.59;99798.50;5124280;27;19929;-72
2023/04/29 08:42:31;;;;;;;0.20;0.20;;;;;;;11.19;50.82;99806.06;5104917;28;20096;-73
2023/04/29 08:44:59;;;;;;;0.30;0.30;;;;;;;12.39;47.13;99803.50;5110167;27;20074;-73
2023/04/29 08:47:26;;;;;;;0.30;0.30;;;;;;;12.76;46.56;99802.03;5105130;28;20053;-72
2023/04/29 08:49:53;;;;;;;0.40;0.40;;;;;;;13.12;45.97;99804.44;5106369;28;20540;-72
2023/04/29 08:52:19;;;;;;;0.30;0.30;;;;;;;13.26;44.85;99801.78;5104066;28;20313;-72
2023/04/29 08:54:47;;;;;;;0.40;0.40;;;;;;;13.05;44.92;99813.00;5088013;28;20113;-73
2023/04/29 08:57:13;;;;;;;0.40;0.40;;;;;;;13.46;44.93;99810.91;5110001;28;20039;-73
2023/04/29 08:59:40;;;;;;;0.30;0.30;;;;;;;15.06;42.18;99818.63;5125859;27;20049;-73
2023/04/29 09:02:12;;;;;;;0.20;0.20;;;;;;;14.42;42.09;99819.97;5120906;28;20046;-73
2023/04/29 09:04:46;;;;;;;0.30;0.30;;;;;;;12.87;45.13;99817.31;5122481;28;20051;-73
2023/04/29 09:07:13;;;;;;;0.50;0.50;;;;;;;13.55;44.74;99820.16;5122666;28;20490;-73
2023/04/29 09:09:41;;;;;;;0.20;0.20;;;;;;;13.44;44.17;99822.22;5111082;27;20055;-74
2023/04/29 09:12:08;;;;;;;0.50;0.50;;;;;;;13.84;43.13;99826.63;5125582;27;20078;-73
2023/04/29 09:14:35;;;;;;;0.40;0.40;;;;;;;14.94;40.94;99824.66;5128727;27;20075;-74
2023/04/29 09:17:02;;;;;;;0.20;0.20;;;;;;;15.01;39.47;99827.00;5109177;27;20058;-73
2023/04/29 09:19:30;;;;;;;0.30;0.30;;;;;;;14.22;40.34;99814.81;5105676;27;20138;-73
2023/04/29 09:21:57;;;;;;;0.40;0.40;;;;;;;13.30;41.43;99829.50;5091048;28;20055;-74
2023/04/29 09:24:25;;;;;;;0.60;0.60;;;;;;;13.95;40.78;99828.13;5088421;28;20062;-73
2023/04/29 09:26:52;;;;;;;0.60;0.60;;;;;;;15.76;38.09;99832.38;5115567;27;20046;-73
2023/04/29 09:29:19;;;;;;;0.30;0.30;;;;;;;16.39;36.16;99832.63;5092943;27;20453;-73
2023/04/29 09:31:46;;;;;;;0.30;0.30;;;;;;;15.17;38.04;99830.25;5107045;27;20144;-73
2023/04/29 09:34:13;;;;;;;0.70;0.70;;;;;;;14.82;38.77;99829.81;5110087;27;20059;-73
2023/04/29 09:36:44;;;;;;;0.70;0.70;;;;;;;16.09;35.75;99820.41;5108008;27;20111;-73
2023/04/29 09:39:12;;;;;;;0.40;0.40;;;;;;;16.74;33.33;99821.00;5106038;28;20134;-73
2023/04/29 09:41:40;;;;;;;0.60;0.60;;;;;;;16.62;33.44;99835.38;5106702;28;20506;-73
2023/04/29 09:44:08;;;;;;;0.38;0.38;;;;;;;16.18;33.72;99837.00;5107701;27;20088;-73
2023/04/29 09:46:37;;;;;;;0.30;0.30;;;;;;;15.20;35.19;99840.66;5128008;27;20521;-75
2023/04/29 09:49:04;;;;;;;0.30;0.30;;;;;;;14.33;36.35;99847.34;5126617;27;20047;-73
2023/04/29 09:51:33;;;;;;;0.20;0.20;;;;;;;14.15;37.26;99853.69;5125949;27;20571;-73
2023/04/29 09:54:01;;;;;;;0.30;0.30;;;;;;;13.68;38.06;99853.50;5107152;27;20061;-73
2023/04/29 09:56:46;;;;;;;0.30;0.30;;;;;;;13.04;39.28;99859.94;5090337;27;20058;-73
2023/04/29 09:59:13;;;;;;;0.30;0.30;;;;;;;12.46;40.40;99862.38;4735972;27;10000921;-73
2023/04/29 10:01:41;;;;;;;0.80;0.80;;;;;;;13.36;39.03;99872.25;5089364;27;20053;-73
2023/04/29 10:04:10;;;;;;;0.60;0.60;;;;;;;15.49;35.29;99858.84;5122772;27;20053;-76
2023/04/29 10:06:40;;;;;;;0.90;0.90;;;;;;;17.53;32.04;99870.31;5104556;27;20455;-73
2023/04/29 10:09:10;;;;;;;0.63;0.63;;;;;;;19.21;29.15;99849.00;5121726;27;20050;-73
2023/04/29 10:11:39;;;;;;;0.50;0.50;;;;;;;19.03;29.09;99864.84;5102956;27;20054;-73
2023/04/29 10:14:11;;;;;;;0.90;0.90;;;;;;;18.63;29.19;99858.38;5122360;27;20047;-73
2023/04/29 10:16:45;;;;;;;1.10;1.00;;;;;;;19.11;27.91;99866.78;5102242;27;20151;-73
2023/04/29 10:19:17;;;;;;;0.70;0.70;;;;;;;19.88;27.09;99849.28;5086579;27;20129;-73
2023/04/29 10:21:44;;;;;;;0.50;0.50;;;;;;;19.76;27.44;99865.84;5102640;27;20047;-73
2023/04/29 10:24:13;;;;;;;0.40;0.40;;;;;;;18.39;29.42;99862.50;5121291;27;20054;-73
2023/04/29 10:26:42;;;;;;;0.30;0.30;;;;;;;16.75;31.39;99886.13;5121238;27;20043;-73
2023/04/29 10:29:10;;;;;;;0.30;0.30;;;;;;;15.42;33.81;99881.28;5121729;27;20054;-73
2023/04/29 10:31:38;;;;;;;0.35;0.35;;;;;;;14.59;35.34;99882.72;5111536;27;20051;-73
2023/04/29 10:34:04;;;;;;;0.30;0.30;;;;;;;14.21;35.83;99877.25;5103115;27;20271;-73
2023/04/29 10:36:33;;;;;;;0.30;0.30;;;;;;;13.94;36.42;99881.47;5104145;27;20047;-73
2023/04/29 10:39:05;;;;;;;0.30;0.30;;;;;;;13.47;36.63;99886.69;5098002;27;20047;-73
2023/04/29 10:41:36;;;;;;;0.30;0.30;;;;;;;12.95;37.56;99891.88;5107064;27;20074;-72
2023/04/29 10:44:03;;;;;;;0.20;0.20;;;;;;;12.57;38.15;99904.25;5088390;27;20043;-73
2023/04/29 10:46:29;;;;;;;0.30;0.30;;;;;;;12.31;38.57;99906.34;5115163;27;20043;-73
2023/04/29 10:48:59;;;;;;;0.30;0.30;;;;;;;12.25;38.81;99902.00;5092905;27;20364;-73
2023/04/29 10:51:31;;;;;;;0.52;0.52;;;;;;;12.63;38.56;99907.78;5122427;27;20481;-73
2023/04/29 10:54:01;;;;;;;0.50;0.50;;;;;;;13.95;36.38;99899.59;5112344;27;20505;-73
2023/04/29 10:56:38;;;;;;;0.50;0.50;;;;;;;14.61;35.21;99890.69;5120586;27;20096;-75
2023/04/29 10:59:05;;;;;;;0.60;0.60;;;;;;;15.19;34.69;99905.13;5120078;27;20039;-76
2023/04/29 11:01:45;;;;;;;0.70;0.70;;;;;;;16.06;32.89;99900.97;5122010;27;20070;-76
2023/04/29 11:04:12;;;;;;;0.50;0.50;;;;;;;15.95;32.70;99912.25;5119271;27;20047;-74
2023/04/29 11:06:40;;;;;;;0.40;0.40;;;;;;;15.53;33.07;99912.22;5121275;27;20075;-73
2023/04/29 11:09:14;;;;;;;0.40;0.40;;;;;;;15.06;33.19;99916.94;5114353;27;20042;-72
2023/04/29 11:11:42;;;;;;;0.30;0.30;;;;;;;14.30;34.35;99922.22;5103410;27;20083;-73
2023/04/29 11:14:10;;;;;;;0.30;0.30;;;;;;;13.77;35.54;99922.38;5117192;27;20061;-73
2023/04/29 11:16:37;;;;;;;1.00;1.00;;;;;;;13.98;35.28;99921.00;5123368;27;20563;-73
2023/04/29 11:19:05;;;;;;;0.90;0.90;;;;;;;16.43;32.35;99926.63;5108904;27;20074;-73
2023/04/29 11:21:33;;;;;;;0.40;0.40;;;;;;;17.28;30.49;99911.31;5092010;27;20047;-73
2023/04/29 11:24:00;;;;;;;0.40;0.40;;;;;;;16.74;30.91;99917.63;5108209;27;20124;-73
2023/04/29 11:26:28;;;;;;;0.30;0.30;;;;;;;15.91;32.21;99913.97;5109025;27;20525;-73
2023/04/29 11:28:57;;;;;;;0.30;0.30;;;;;;;15.08;33.34;99915.50;5109214;27;20057;-73
2023/04/29 11:31:28;;;;;;;0.47;0.40;;;;;;;14.44;33.66;99910.47;5091193;27;20096;-73
2023/04/29 11:33:54;;;;;;;0.55;0.38;;;;;;;14.03;34.00;99920.09;5123196;27;20055;-73
2023/04/29 11:36:20;;;;;;;0.30;0.30;;;;;;;13.64;33.84;99926.63;5106942;27;20047;-73
2023/04/29 11:38:47;;;;;;;1.02;1.02;;;;;;;13.73;33.89;99925.69;5091264;27;20288;-73
2023/04/29 11:41:14;;;;;;;1.00;1.00;;;;;;;16.11;30.88;99928.47;5129099;27;20051;-73
2023/04/29 11:43:44;;;;;;;;;;;;;;;17.44;29.00;99926.34;5109853;27;20571;-74
2023/04/29 11:46:12;;;;;;;0.88;0.88;;;;;;;16.87;29.47;99925.03;5108189;27;19915;-75
2023/04/29 11:48:46;;;;;;;1.25;1.20;;;;;;;17.83;28.29;99917.56;5110424;27;20039;-75
2023/04/29 11:51:14;;;;;;;0.90;0.90;;;;;;;18.55;27.24;99917.34;5117160;27;20043;-76
2023/04/29 11:53:40;;;;;;;1.40;1.30;;;;;;;20.20;25.69;99915.53;5108872;27;20047;-75